Time;durP1;ratioP1;P1;durP2;ratioP2;P2;SDS_P1;SDS_P2;PMS_P1;PMS_P2;Temp;Humidity;BMP_temperature;BMP_pressure;BME280_temperature;BME280_humidity;BME280_pressure;Samples;Min_cycle;Max_cycle;Signal;HPM_P1;HPM_P2
2023/09/16 00:02:08;;;;;;;;;;;17.70;99.90;;;;;;4931750;28;19941;-79
2023/09/16 00:04:34;;;;;;;;;;;17.70;99.90;;;;;;4930610;28;19939;-81
2023/09/16 00:06:59;;;;;;;;;;;17.80;99.90;;;;;;4917085;28;20583;-83
2023/09/16 00:09:25;;;;;;;;;;;17.70;99.90;;;;;;4928494;28;20028;-82
2023/09/16 00:11:51;;;;;;;;;;;17.80;99.90;;;;;;4926461;28;19968;-81
2023/09/16 00:14:21;;;;;;;;;;;17.80;99.90;;;;;;4931341;28;19926;-79
2023/09/16 00:16:46;;;;;;;;;;;17.90;99.90;;;;;;4929117;28;19936;-80
2023/09/16 00:19:12;;;;;;;;;;;17.90;99.90;;;;;;4929459;28;20318;-82
2023/09/16 00:21:40;;;;;;;;;;;17.90;99.90;;;;;;4932466;28;20068;-82
2023/09/16 00:24:05;;;;;;;;;;;17.90;99.90;;;;;;4932672;28;19940;-83
2023/09/16 00:26:34;;;;;;;;;;;17.90;99.90;;;;;;4931173;28;19935;-83
2023/09/16 00:29:00;;;;;;;;;;;17.90;99.90;;;;;;4931161;28;20384;-83
2023/09/16 00:31:25;;;;;;;;;;;17.90;99.90;;;;;;4928944;28;19941;-84
2023/09/16 00:33:51;;;;;;;;;;;17.90;99.90;;;;;;4933554;28;19935;-84
2023/09/16 00:36:17;;;;;;;;;;;17.90;99.90;;;;;;4927714;28;20430;-80
2023/09/16 00:38:42;;;;;;;;;;;17.90;99.90;;;;;;4926586;28;20101;-74
2023/09/16 00:41:08;;;;;;;;;;;17.80;99.90;;;;;;4932101;28;20415;-74
2023/09/16 00:43:34;;;;;;;;;;;17.80;99.90;;;;;;4926988;28;19929;-74
2023/09/16 00:45:59;;;;;;;;;;;17.80;99.90;;;;;;4927802;28;20062;-74
2023/09/16 00:48:25;;;;;;;;;;;17.80;99.90;;;;;;4926646;28;20681;-74
2023/09/16 00:50:50;;;;;;;;;;;17.70;99.90;;;;;;4920491;28;20909;-74
2023/09/16 00:53:16;;;;;;;;;;;17.80;99.90;;;;;;4924242;28;20580;-74
2023/09/16 00:55:43;;;;;;;;;;;17.80;99.90;;;;;;4933127;28;20068;-75
2023/09/16 00:58:10;;;;;;;;;;;17.70;99.90;;;;;;4932852;28;19938;-74
2023/09/16 01:00:36;;;;;;;;;;;17.70;99.90;;;;;;4927892;28;19959;-74
2023/09/16 01:03:04;;;;;;;;;;;17.70;99.90;;;;;;4920249;28;19946;-74
2023/09/16 01:05:30;;;;;;;;;;;17.70;99.90;;;;;;4928715;28;20088;-74
2023/09/16 01:07:56;;;;;;;;;;;17.70;99.90;;;;;;4927017;28;19969;-74
2023/09/16 01:10:22;;;;;;;;;;;17.70;99.90;;;;;;4925883;28;19960;-74
2023/09/16 01:12:48;;;;;;;;;;;17.60;99.90;;;;;;4926936;28;20140;-74
2023/09/16 01:15:15;;;;;;;;;;;17.60;99.90;;;;;;4929291;28;19950;-75
2023/09/16 01:17:48;;;;;;;;;;;17.60;99.90;;;;;;4929774;28;19986;-74
2023/09/16 01:20:15;;;;;;;;;;;17.60;99.90;;;;;;4928909;28;19930;-74
2023/09/16 01:22:45;;;;;;;;;;;17.60;99.90;;;;;;4929548;28;20029;-74
2023/09/16 01:25:17;;;;;;;;;;;17.50;99.90;;;;;;4932737;28;19924;-74
2023/09/16 01:27:43;;;;;;;;;;;17.50;99.90;;;;;;4933634;28;20533;-74
2023/09/16 01:30:09;;;;;;;;;;;17.40;99.90;;;;;;4934629;28;20652;-74
2023/09/16 01:32:40;;;;;;;;;;;17.40;99.90;;;;;;4932659;28;20419;-77
2023/09/16 01:35:07;;;;;;;;;;;17.40;99.90;;;;;;4935939;28;20397;-77
2023/09/16 01:37:33;;;;;;;;;;;17.30;99.90;;;;;;4934592;28;19950;-76
2023/09/16 01:39:59;;;;;;;;;;;17.30;99.90;;;;;;4936285;28;19932;-77
2023/09/16 01:42:27;;;;;;;;;;;17.30;99.90;;;;;;4932277;28;19934;-77
2023/09/16 01:44:54;;;;;;;;;;;17.30;99.90;;;;;;4931583;28;19962;-77
2023/09/16 01:47:20;;;;;;;;;;;17.30;99.90;;;;;;4928380;28;19926;-77
2023/09/16 01:49:45;;;;;;;;;;;17.30;99.90;;;;;;4935814;28;19967;-77
2023/09/16 01:52:11;;;;;;;;;;;17.40;99.90;;;;;;4930025;28;21068;-77
2023/09/16 01:54:36;;;;;;;;;;;17.40;99.90;;;;;;4934914;28;20017;-77
2023/09/16 01:57:02;;;;;;;;;;;17.40;99.90;;;;;;4933522;28;19940;-77
2023/09/16 01:59:28;;;;;;;;;;;17.40;99.90;;;;;;4932107;28;19939;-77
2023/09/16 02:01:53;;;;;;;;;;;17.40;99.90;;;;;;4927359;28;20409;-78
2023/09/16 02:04:19;;;;;;;;;;;17.40;99.90;;;;;;4930210;28;19924;-78
2023/09/16 02:06:46;;;;;;;;;;;17.30;99.90;;;;;;4930201;28;20023;-77
2023/09/16 02:09:15;;;;;;;;;;;17.40;99.90;;;;;;4934237;28;20409;-77
2023/09/16 02:11:41;;;;;;;;;;;17.40;99.90;;;;;;4932562;28;19942;-77
2023/09/16 02:14:11;;;;;;;;;;;17.40;99.90;;;;;;4935743;28;19947;-77
2023/09/16 02:16:37;;;;;;;;;;;17.30;99.90;;;;;;4930843;28;20415;-78
2023/09/16 02:19:03;;;;;;;;;;;17.40;99.90;;;;;;4931449;28;19946;-76
2023/09/16 02:21:28;;;;;;;;;;;17.30;99.90;;;;;;4931618;28;19932;-76
2023/09/16 02:23:54;;;;;;;;;;;17.30;99.90;;;;;;4930151;28;20023;-77
2023/09/16 02:26:19;;;;;;;;;;;17.30;99.90;;;;;;4935245;28;19958;-77
2023/09/16 02:28:45;;;;;;;;;;;17.30;99.90;;;;;;4948482;28;19977;-77
2023/09/16 02:31:11;;;;;;;;;;;17.20;99.90;;;;;;4934148;28;20032;-76
2023/09/16 02:33:36;;;;;;;;;;;17.30;99.90;;;;;;4930967;28;20048;-77
2023/09/16 02:36:02;;;;;;;;;;;17.20;99.90;;;;;;4919009;28;20640;-77
2023/09/16 02:38:28;;;;;;;;;;;17.20;99.90;;;;;;4932087;28;20118;-77
2023/09/16 02:40:53;;;;;;;;;;;17.20;99.90;;;;;;4931395;28;20754;-77
2023/09/16 02:43:19;;;;;;;;;;;17.20;99.90;;;;;;4946443;28;19941;-77
2023/09/16 02:45:44;;;;;;;;;;;17.10;99.90;;;;;;4934214;28;19937;-75
2023/09/16 02:48:10;;;;;;;;;;;17.10;99.90;;;;;;4923728;28;19940;-74
2023/09/16 02:50:39;;;;;;;;;;;17.10;99.90;;;;;;4932363;28;19934;-74
2023/09/16 02:53:05;;;;;;;;;;;17.20;99.90;;;;;;4921391;28;20023;-74
2023/09/16 02:55:33;;;;;;;;;;;17.10;99.90;;;;;;4931413;28;20277;-74
2023/09/16 02:57:59;;;;;;;;;;;17.10;99.90;;;;;;4930747;28;19938;-74
2023/09/16 03:00:25;;;;;;;;;;;17.20;99.90;;;;;;4931467;28;19963;-74
2023/09/16 03:02:50;;;;;;;;;;;17.20;99.90;;;;;;4932031;28;19929;-74
2023/09/16 03:05:16;;;;;;;;;;;17.20;99.90;;;;;;4931314;28;19935;-74
2023/09/16 03:07:43;;;;;;;;;;;17.20;99.90;;;;;;4930607;28;19959;-74
2023/09/16 03:10:09;;;;;;;;;;;17.20;99.90;;;;;;4927676;28;19994;-74
2023/09/16 03:12:34;;;;;;;;;;;17.20;99.90;;;;;;4933139;28;19978;-74
2023/09/16 03:15:00;;;;;;;;;;;17.20;99.90;;;;;;4935812;28;19962;-74
2023/09/16 03:17:26;;;;;;;;;;;17.20;99.90;;;;;;4931540;28;20438;-74
2023/09/16 03:19:52;;;;;;;;;;;17.10;99.90;;;;;;4931809;28;19975;-75
2023/09/16 03:22:18;;;;;;;;;;;17.10;99.90;;;;;;4924216;28;20445;-74
2023/09/16 03:24:43;;;;;;;;;;;17.00;99.90;;;;;;4933449;28;19938;-77
2023/09/16 03:27:09;;;;;;;;;;;17.00;99.90;;;;;;4930867;28;19938;-77
2023/09/16 03:29:34;;;;;;;;;;;16.90;99.90;;;;;;4934259;28;20271;-78
2023/09/16 03:32:00;;;;;;;;;;;16.90;99.90;;;;;;4927268;28;20014;-77
2023/09/16 03:34:25;;;;;;;;;;;16.90;99.90;;;;;;4925279;28;19998;-77
2023/09/16 03:36:51;;;;;;;;;;;16.90;99.90;;;;;;4931907;28;19938;-77
2023/09/16 03:39:16;;;;;;;;;;;16.80;99.90;;;;;;4933601;28;20305;-78
2023/09/16 03:41:42;;;;;;;;;;;16.80;99.90;;;;;;4932765;28;20001;-75
2023/09/16 03:44:09;;;;;;;;;;;16.80;99.90;;;;;;4928233;28;19948;-74
2023/09/16 03:46:35;;;;;;;;;;;16.80;99.90;;;;;;4928998;28;19996;-74
2023/09/16 03:49:01;;;;;;;;;;;16.80;99.90;;;;;;4930517;28;19929;-75
2023/09/16 03:51:29;;;;;;;;;;;16.80;99.90;;;;;;4929652;28;19938;-74
2023/09/16 03:53:54;;;;;;;;;;;16.70;99.90;;;;;;4915739;29;20387;-73
2023/09/16 03:56:20;;;;;;;;;;;16.70;99.90;;;;;;4913986;28;19960;-74
2023/09/16 03:58:45;;;;;;;;;;;16.60;99.90;;;;;;4936756;28;20751;-74
2023/09/16 04:01:11;;;;;;;;;;;16.50;99.90;;;;;;4922000;28;19971;-74
2023/09/16 04:03:36;;;;;;;;;;;16.50;99.90;;;;;;4929924;28;19935;-74
2023/09/16 04:06:04;;;;;;;;;;;16.50;99.90;;;;;;4933248;28;20405;-77
2023/09/16 04:08:30;;;;;;;;;;;16.40;99.90;;;;;;4932121;28;19956;-74
2023/09/16 04:10:56;;;;;;;;;;;16.40;99.90;;;;;;4946101;28;19937;-74
2023/09/16 04:13:22;;;;;;;;;;;16.30;99.90;;;;;;4937070;28;19937;-74
2023/09/16 04:15:48;;;;;;;;;;;16.30;99.90;;;;;;4938212;28;19971;-74
2023/09/16 04:18:14;;;;;;;;;;;16.30;99.90;;;;;;4936973;28;19967;-77
2023/09/16 04:20:39;;;;;;;;;;;16.30;99.90;;;;;;4937108;28;20040;-76
2023/09/16 04:23:05;;;;;;;;;;;16.30;99.90;;;;;;4935983;28;20001;-77
2023/09/16 04:25:31;;;;;;;;;;;16.30;99.90;;;;;;4938852;28;20526;-77
2023/09/16 04:27:57;;;;;;;;;;;16.30;99.90;;;;;;4936097;28;19971;-77
2023/09/16 04:30:23;;;;;;;;;;;16.30;99.90;;;;;;4932812;28;19934;-77
2023/09/16 04:32:48;;;;;;;;;;;16.30;99.90;;;;;;4938620;28;19971;-76
2023/09/16 04:35:14;;;;;;;;;;;16.30;99.90;;;;;;4928897;28;20045;-77
2023/09/16 04:37:39;;;;;;;;;;;16.20;99.90;;;;;;4939315;28;19999;-77
2023/09/16 04:40:11;;;;;;;;;;;16.30;99.90;;;;;;4938072;28;21162;-79
2023/09/16 04:42:37;;;;;;;;;;;16.30;99.90;;;;;;4933466;28;19942;-79
2023/09/16 04:45:06;;;;;;;;;;;16.30;99.90;;;;;;4933738;28;19935;-79
2023/09/16 04:47:31;;;;;;;;;;;16.30;99.90;;;;;;4938803;28;19932;-79
2023/09/16 04:49:57;;;;;;;;;;;16.30;99.90;;;;;;4932334;28;19946;-79
2023/09/16 04:52:25;;;;;;;;;;;16.30;99.90;;;;;;4933203;28;19991;-81
2023/09/16 04:54:51;;;;;;;;;;;16.40;99.90;;;;;;4935027;28;20045;-76
2023/09/16 04:57:16;;;;;;;;;;;16.40;99.90;;;;;;4934050;28;20050;-78
2023/09/16 04:59:45;;;;;;;;;;;16.40;99.90;;;;;;4937690;28;19948;-77
2023/09/16 05:02:10;;;;;;;;;;;16.50;99.90;;;;;;4935968;28;19941;-76
2023/09/16 05:04:36;;;;;;;;;;;16.50;99.90;;;;;;4930604;28;20027;-78
2023/09/16 05:07:04;;;;;;;;;;;16.50;99.90;;;;;;4926299;28;19943;-79
2023/09/16 05:09:30;;;;;;;;;;;16.50;99.90;;;;;;4929653;28;20123;-79
2023/09/16 05:11:55;;;;;;;;;;;16.50;99.90;;;;;;4925486;28;20390;-77
2023/09/16 05:14:21;;;;;;;;;;;16.50;99.90;;;;;;4927857;28;20979;-76
2023/09/16 05:16:46;;;;;;;;;;;16.50;99.90;;;;;;4928665;28;19947;-76
2023/09/16 05:19:12;;;;;;;;;;;16.50;99.90;;;;;;4923075;28;19970;-76
2023/09/16 05:21:38;;;;;;;;;;;16.50;99.90;;;;;;4924199;28;21262;-76
2023/09/16 05:24:04;;;;;;;;;;;16.50;99.90;;;;;;4922154;28;20003;-76
2023/09/16 05:26:30;;;;;;;;;;;16.60;99.90;;;;;;4924809;28;19962;-76
2023/09/16 05:28:56;;;;;;;;;;;16.60;99.90;;;;;;4924041;28;19938;-76
2023/09/16 05:31:23;;;;;;;;;;;16.70;99.90;;;;;;4921805;28;19944;-76
2023/09/16 05:33:49;;;;;;;;;;;16.70;99.90;;;;;;4926126;28;19932;-74
2023/09/16 05:36:14;;;;;;;;;;;16.80;99.90;;;;;;4927306;28;19981;-76
2023/09/16 05:38:40;;;;;;;;;;;16.80;99.90;;;;;;4927828;28;19932;-74
2023/09/16 05:41:05;;;;;;;;;;;16.80;99.90;;;;;;4919627;28;19938;-74
2023/09/16 05:43:31;;;;;;;;;;;16.80;99.90;;;;;;4927418;28;19936;-74
2023/09/16 05:45:56;;;;;;;;;;;16.90;99.90;;;;;;4928370;28;19957;-74
2023/09/16 05:48:24;;;;;;;;;;;17.00;99.90;;;;;;4930446;28;19936;-74
2023/09/16 05:50:56;;;;;;;;;;;17.00;99.90;;;;;;4927952;28;20505;-74
2023/09/16 05:53:22;;;;;;;;;;;17.10;99.90;;;;;;4927214;28;19945;-74
2023/09/16 05:55:47;;;;;;;;;;;17.20;99.90;;;;;;4931147;28;19954;-74
2023/09/16 05:58:13;;;;;;;;;;;17.20;99.90;;;;;;4931966;28;20771;-75
2023/09/16 06:00:38;;;;;;;;;;;17.30;99.90;;;;;;4925817;28;20032;-73
2023/09/16 06:03:04;;;;;;;;;;;17.40;99.90;;;;;;4933963;28;19936;-73
2023/09/16 06:05:30;;;;;;;;;;;17.50;99.90;;;;;;4935078;28;19951;-74
2023/09/16 06:07:55;;;;;;;;;;;17.70;99.90;;;;;;4931369;28;20292;-73
2023/09/16 06:10:21;;;;;;;;;;;17.80;99.90;;;;;;4923755;28;21037;-73
2023/09/16 06:12:47;;;;;;;;;;;17.90;99.90;;;;;;4927328;28;20606;-73
2023/09/16 06:15:12;;;;;;;;;;;18.10;99.90;;;;;;4933974;28;20008;-75
2023/09/16 06:17:38;;;;;;;;;;;18.20;99.90;;;;;;4930331;28;20652;-75
2023/09/16 06:20:04;;;;;;;;;;;18.30;99.90;;;;;;4927273;28;20036;-72
2023/09/16 06:22:29;;;;;;;;;;;18.40;99.90;;;;;;4932528;28;20433;-72
2023/09/16 06:24:54;;;;;;;;;;;18.60;99.90;;;;;;4931262;28;19968;-72
2023/09/16 06:27:20;;;;;;;;;;;18.80;99.90;;;;;;4927752;28;20403;-66
2023/09/16 06:29:46;;;;;;;;;;;18.90;99.90;;;;;;4915562;29;19941;-66
2023/09/16 06:32:12;;;;;;;;;;;19.00;99.90;;;;;;4931514;28;20694;-66
2023/09/16 06:34:37;;;;;;;;;;;19.10;99.90;;;;;;4930098;28;20428;-66
2023/09/16 06:37:05;;;;;;;;;;;19.20;99.90;;;;;;4933490;28;19945;-66
2023/09/16 06:39:31;;;;;;;;;;;19.40;99.90;;;;;;4933385;28;19933;-66
2023/09/16 06:41:57;;;;;;;;;;;19.50;99.90;;;;;;4928407;28;19937;-68
2023/09/16 06:44:22;;;;;;;;;;;19.60;99.90;;;;;;4921041;28;20406;-68
2023/09/16 06:46:48;;;;;;;;;;;19.60;99.90;;;;;;4928686;28;19991;-66
2023/09/16 06:49:13;;;;;;;;;;;19.60;99.90;;;;;;4930805;28;19987;-66
2023/09/16 06:51:39;;;;;;;;;;;19.60;99.90;;;;;;4925374;28;19930;-66
2023/09/16 06:54:05;;;;;;;;;;;19.60;99.90;;;;;;4932324;28;19937;-66
2023/09/16 06:56:30;;;;;;;;;;;19.70;99.90;;;;;;4927539;28;20342;-72
2023/09/16 06:58:56;;;;;;;;;;;19.80;99.90;;;;;;4927421;28;19932;-70
2023/09/16 07:01:25;;;;;;;;;;;20.00;99.90;;;;;;4931408;28;20391;-71
2023/09/16 07:03:50;;;;;;;;;;;20.10;99.90;;;;;;4931959;28;19937;-72
2023/09/16 07:06:16;;;;;;;;;;;20.10;99.90;;;;;;4929556;28;19923;-70
2023/09/16 07:08:41;;;;;;;;;;;20.10;99.90;;;;;;4930330;28;20116;-74
2023/09/16 07:11:07;;;;;;;;;;;20.20;99.90;;;;;;4927394;28;19991;-74
2023/09/16 07:13:32;;;;;;;;;;;20.40;99.90;;;;;;4934623;28;19935;-74
2023/09/16 07:15:58;;;;;;;;;;;20.50;99.90;;;;;;4931627;28;19966;-74
2023/09/16 07:18:23;;;;;;;;;;;20.60;99.90;;;;;;4933253;28;19931;-74
2023/09/16 07:20:49;;;;;;;;;;;20.70;99.90;;;;;;4935824;28;20341;-75
2023/09/16 07:23:15;;;;;;;;;;;20.70;99.90;;;;;;4930260;28;20038;-75
2023/09/16 07:25:40;;;;;;;;;;;20.80;99.90;;;;;;4927618;28;19935;-79
2023/09/16 07:28:07;;;;;;;;;;;20.90;99.90;;;;;;4923504;28;19934;-79
2023/09/16 07:30:33;;;;;;;;;;;21.10;99.90;;;;;;4936448;28;20052;-78
2023/09/16 07:32:59;;;;;;;;;;;21.10;99.90;;;;;;4934939;28;19938;-78
2023/09/16 07:35:25;;;;;;;;;;;21.10;99.90;;;;;;4917161;28;19955;-78
2023/09/16 07:37:50;;;;;;;;;;;21.10;99.90;;;;;;4950411;28;19929;-78
2023/09/16 07:40:16;;;;;;;;;;;21.00;99.90;;;;;;4936246;28;19942;-76
2023/09/16 07:42:41;;;;;;;;;;;21.00;99.90;;;;;;4935979;28;19933;-80
2023/09/16 07:45:07;;;;;;;;;;;21.10;99.90;;;;;;4929625;28;20607;-78
2023/09/16 07:47:32;;;;;;;;;;;20.90;99.90;;;;;;4925547;28;19927;-78
2023/09/16 07:49:58;;;;;;;;;;;21.00;99.90;;;;;;4944878;28;20035;-77
2023/09/16 07:52:23;;;;;;;;;;;21.20;99.90;;;;;;4929116;28;19941;-78
2023/09/16 07:54:49;;;;;;;;;;;21.30;99.90;;;;;;4930906;28;19961;-78
2023/09/16 07:57:14;;;;;;;;;;;21.40;99.90;;;;;;4933478;28;19951;-78
2023/09/16 07:59:40;;;;;;;;;;;21.60;99.90;;;;;;4931586;28;19935;-77
2023/09/16 08:02:06;;;;;;;;;;;21.60;99.90;;;;;;4931670;28;19970;-78
2023/09/16 08:04:31;;;;;;;;;;;21.60;99.90;;;;;;4933259;28;19974;-77
2023/09/16 08:06:57;;;;;;;;;;;21.60;99.90;;;;;;4951591;28;19958;-79
2023/09/16 08:09:23;;;;;;;;;;;21.70;99.90;;;;;;4933559;28;20018;-78
2023/09/16 08:11:48;;;;;;;;;;;21.80;99.90;;;;;;4930119;28;21112;-72
2023/09/16 08:14:14;;;;;;;;;;;21.70;99.90;;;;;;4934421;28;19940;-72
2023/09/16 08:16:39;;;;;;;;;;;21.80;99.90;;;;;;4929451;28;19959;-72
2023/09/16 08:19:05;;;;;;;;;;;21.90;99.90;;;;;;4927777;28;20538;-65
2023/09/16 08:21:31;;;;;;;;;;;21.90;99.90;;;;;;4935790;28;19929;-65
2023/09/16 08:23:56;;;;;;;;;;;21.70;99.90;;;;;;4928147;28;20367;-65
2023/09/16 08:26:22;;;;;;;;;;;21.70;99.90;;;;;;4932870;28;20025;-65
2023/09/16 08:28:47;;;;;;;;;;;21.80;99.90;;;;;;4934953;28;20036;-65
2023/09/16 08:31:13;;;;;;;;;;;21.80;99.90;;;;;;4936490;28;19929;-66
2023/09/16 08:33:38;;;;;;;;;;;21.70;99.90;;;;;;4931662;28;19929;-65
2023/09/16 08:36:04;;;;;;;;;;;21.70;99.90;;;;;;4939184;28;19956;-65
2023/09/16 08:38:30;;;;;;;;;;;21.60;99.90;;;;;;4931931;28;19936;-64
2023/09/16 08:41:14;;;;;;;;;;;21.50;99.90;;;;;;4924239;28;19951;-70
2023/09/16 08:43:40;;;;;;;;;;;21.50;99.90;;;;;;4930306;28;19931;-70
2023/09/16 08:46:08;;;;;;;;;;;21.50;99.90;;;;;;4920832;28;20514;-69
2023/09/16 08:48:37;;;;;;;;;;;21.60;99.90;;;;;;4927688;28;19934;-70
2023/09/16 08:51:05;;;;;;;;;;;21.70;99.90;;;;;;4928286;28;20018;-70
2023/09/16 08:53:31;;;;;;;;;;;21.80;99.90;;;;;;4927811;28;20002;-77
2023/09/16 08:55:57;;;;;;;;;;;21.90;99.90;;;;;;4919460;28;20486;-78
2023/09/16 08:58:23;;;;;;;;;;;22.10;99.90;;;;;;4928474;28;19996;-78
2023/09/16 09:00:49;;;;;;;;;;;22.20;99.90;;;;;;4922420;28;19959;-77
2023/09/16 09:03:15;;;;;;;;;;;22.30;99.90;;;;;;4925140;28;19937;-77
2023/09/16 09:05:42;;;;;;;;;;;22.40;99.90;;;;;;4927507;28;19953;-77
2023/09/16 09:08:09;;;;;;;;;;;22.50;99.90;;;;;;4929994;28;19929;-78
2023/09/16 09:10:35;;;;;;;;;;;22.60;99.90;;;;;;4933327;28;19931;-78
2023/09/16 09:13:02;;;;;;;;;;;22.50;99.90;;;;;;4925576;28;20024;-78
2023/09/16 09:15:28;;;;;;;;;;;22.30;99.90;;;;;;4938438;28;20007;-78
2023/09/16 09:17:57;;;;;;;;;;;22.40;99.90;;;;;;4924509;28;20784;-79
2023/09/16 09:20:23;;;;;;;;;;;22.40;99.90;;;;;;4933495;28;19993;-79
2023/09/16 09:22:50;;;;;;;;;;;22.50;99.90;;;;;;4928028;28;19938;-79
2023/09/16 09:25:19;;;;;;;;;;;22.70;99.90;;;;;;4928873;28;20516;-79
2023/09/16 09:27:44;;;;;;;;;;;22.80;99.90;;;;;;4918473;28;19937;-80
2023/09/16 09:30:10;;;;;;;;;;;22.90;99.90;;;;;;4914114;29;20740;-78
2023/09/16 09:32:37;;;;;;;;;;;23.00;99.90;;;;;;4940666;28;19934;-79
2023/09/16 09:35:06;;;;;;;;;;;23.10;99.90;;;;;;4936557;28;20608;-80
2023/09/16 09:37:32;;;;;;;;;;;23.10;99.90;;;;;;4935466;28;19952;-78
2023/09/16 09:40:05;;;;;;;;;;;23.10;99.90;;;;;;4950303;28;19936;-79
2023/09/16 09:42:30;;;;;;;;;;;23.00;99.90;;;;;;4940646;28;20005;-79
2023/09/16 09:45:00;;;;;;;;;;;22.90;99.90;;;;;;4935301;28;19976;-80
2023/09/16 09:47:26;;;;;;;;;;;22.90;99.90;;;;;;4935530;28;19980;-79
2023/09/16 09:49:52;;;;;;;;;;;22.90;99.90;;;;;;4936498;28;19996;-79
2023/09/16 09:52:17;;;;;;;;;;;22.70;99.90;;;;;;4937330;28;19932;-78
2023/09/16 09:54:44;;;;;;;;;;;22.60;99.90;;;;;;4937773;28;19931;-77
2023/09/16 09:57:10;;;;;;;;;;;22.60;99.90;;;;;;4937035;28;19937;-79
2023/09/16 09:59:36;;;;;;;;;;;22.70;99.90;;;;;;4934998;28;19935;-79
2023/09/16 10:02:04;;;;;;;;;;;22.80;99.90;;;;;;4938298;28;20471;-78
2023/09/16 10:04:30;;;;;;;;;;;22.80;99.90;;;;;;4933454;28;19938;-77
2023/09/16 10:06:57;;;;;;;;;;;22.90;99.90;;;;;;4940435;28;19942;-77
2023/09/16 10:09:22;;;;;;;;;;;22.90;99.90;;;;;;4932698;28;20756;-76
2023/09/16 10:11:48;;;;;;;;;;;22.90;99.90;;;;;;4934000;28;20545;-76
2023/09/16 10:14:13;;;;;;;;;;;22.80;99.90;;;;;;4936585;28;19960;-75
2023/09/16 10:16:39;;;;;;;;;;;22.80;99.90;;;;;;4936496;28;19958;-76
2023/09/16 10:19:05;;;;;;;;;;;22.80;99.90;;;;;;4934703;28;21089;-75
2023/09/16 10:21:31;;;;;;;;;;;22.70;99.90;;;;;;4936260;28;19931;-75
2023/09/16 10:23:56;;;;;;;;;;;22.70;99.90;;;;;;4937720;28;19954;-75
2023/09/16 10:26:22;;;;;;;;;;;22.70;99.90;;;;;;4937008;28;19957;-75
2023/09/16 10:28:49;;;;;;;;;;;22.60;99.90;;;;;;4936339;28;20442;-76
2023/09/16 10:31:16;;;;;;;;;;;22.60;99.90;;;;;;4934024;28;19940;-75
2023/09/16 10:33:42;;;;;;;;;;;22.60;99.90;;;;;;4938074;28;19967;-75
2023/09/16 10:36:08;;;;;;;;;;;22.60;99.90;;;;;;4933304;28;20497;-76
2023/09/16 10:38:36;;;;;;;;;;;22.50;99.90;;;;;;4933652;28;19934;-75
2023/09/16 10:41:04;;;;;;;;;;;22.50;99.90;;;;;;4936465;28;19934;-75
2023/09/16 10:43:30;;;;;;;;;;;22.60;99.90;;;;;;4930803;28;20353;-75
2023/09/16 10:45:56;;;;;;;;;;;22.70;99.90;;;;;;4933006;28;19935;-76
2023/09/16 10:48:22;;;;;;;;;;;22.80;99.90;;;;;;4936062;28;19941;-76
2023/09/16 10:50:49;;;;;;;;;;;22.80;99.90;;;;;;4938040;28;19994;-77
2023/09/16 10:53:16;;;;;;;;;;;22.80;99.90;;;;;;4937194;28;20022;-77
2023/09/16 10:56:05;;;;;;;;;;;22.90;99.90;;;;;;4934529;28;19974;-77
2023/09/16 10:58:41;;;;;;;;;;;23.00;99.90;;;;;;4935860;28;19964;-77
2023/09/16 11:01:08;;;;;;;;;;;23.10;99.90;;;;;;4942228;28;19956;-77
2023/09/16 11:03:36;;;;;;;;;;;23.10;99.90;;;;;;4937459;28;20362;-77
2023/09/16 11:06:01;;;;;;;;;;;23.20;99.90;;;;;;4935944;28;20004;-76
2023/09/16 11:08:27;;;;;;;;;;;23.20;99.90;;;;;;4942948;28;19974;-76
2023/09/16 11:10:53;;;;;;;;;;;23.30;99.90;;;;;;4938794;28;19942;-76
2023/09/16 11:13:20;;;;;;;;;;;23.30;99.90;;;;;;4938148;28;20433;-76
2023/09/16 11:15:46;;;;;;;;;;;23.30;99.90;;;;;;4942285;28;19981;-76
2023/09/16 11:18:15;;;;;;;;;;;23.50;99.90;;;;;;4940756;28;19936;-76
2023/09/16 11:20:41;;;;;;;;;;;23.70;99.90;;;;;;4938955;28;19934;-76
2023/09/16 11:23:07;;;;;;;;;;;23.80;99.90;;;;;;4940847;28;20417;-74
2023/09/16 11:25:33;;;;;;;;;;;23.80;99.90;;;;;;4939663;28;19934;-75
2023/09/16 11:28:00;;;;;;;;;;;23.90;99.90;;;;;;4939691;28;20426;-75
2023/09/16 11:30:25;;;;;;;;;;;24.00;99.90;;;;;;4931288;28;19932;-75
2023/09/16 11:32:54;;;;;;;;;;;24.00;99.90;;;;;;4939652;28;19927;-74
2023/09/16 11:35:19;;;;;;;;;;;23.90;99.90;;;;;;4939580;28;19952;-75
2023/09/16 11:37:45;;;;;;;;;;;23.80;99.90;;;;;;4936994;28;19933;-74
2023/09/16 11:40:10;;;;;;;;;;;23.80;99.90;;;;;;4937249;28;19953;-74
2023/09/16 11:42:36;;;;;;;;;;;23.80;99.90;;;;;;4940802;28;19954;-74
2023/09/16 11:45:02;;;;;;;;;;;23.80;99.90;;;;;;4939201;28;19946;-75
2023/09/16 11:47:30;;;;;;;;;;;23.90;99.90;;;;;;4927202;28;19956;-74
2023/09/16 11:49:55;;;;;;;;;;;24.00;99.90;;;;;;4915665;28;20745;-74
2023/09/16 11:52:21;;;;;;;;;;;23.90;99.90;;;;;;4932644;28;20069;-75
2023/09/16 11:54:47;;;;;;;;;;;23.90;99.90;;;;;;4920321;28;20034;-74
2023/09/16 11:57:13;;;;;;;;;;;23.80;99.90;;;;;;4925662;28;19946;-70
2023/09/16 11:59:38;;;;;;;;;;;23.80;99.90;;;;;;4930831;28;19936;-66
2023/09/16 12:02:05;;;;;;;;;;;23.70;99.90;;;;;;4934070;28;19980;-65
2023/09/16 12:04:30;;;;;;;;;;;23.70;99.90;;;;;;4924184;28;19934;-67
2023/09/16 12:06:57;;;;;;;;;;;23.70;99.90;;;;;;4921445;28;19988;-66
2023/09/16 12:09:24;;;;;;;;;;;23.60;99.90;;;;;;4917109;28;19942;-66
2023/09/16 12:11:51;;;;;;;;;;;23.50;99.90;;;;;;4921529;28;20459;-66
2023/09/16 12:14:17;;;;;;;;;;;23.50;99.90;;;;;;4915300;28;19992;-67
2023/09/16 12:16:42;;;;;;;;;;;23.50;99.90;;;;;;4926296;28;19958;-76
2023/09/16 12:19:08;;;;;;;;;;;23.50;99.90;;;;;;4928562;28;20473;-76
2023/09/16 12:21:34;;;;;;;;;;;23.50;99.90;;;;;;4928796;28;19974;-76
2023/09/16 12:23:59;;;;;;;;;;;23.50;99.90;;;;;;4927331;28;19940;-77
2023/09/16 12:26:25;;;;;;;;;;;23.50;99.90;;;;;;4927727;28;20461;-76
2023/09/16 12:28:51;;;;;;;;;;;23.50;99.90;;;;;;4922292;28;23995;-81
2023/09/16 12:31:20;;;;;;;;;;;23.60;99.90;;;;;;4925638;28;19979;-82
2023/09/16 12:33:48;;;;;;;;;;;23.60;99.90;;;;;;4921243;28;19937;-79
2023/09/16 12:36:15;;;;;;;;;;;23.60;99.90;;;;;;4933011;28;19957;-82
2023/09/16 12:38:40;;;;;;;;;;;23.70;99.90;;;;;;4937422;28;20372;-76
2023/09/16 12:41:06;;;;;;;;;;;23.70;99.90;;;;;;4932700;28;19937;-77
2023/09/16 12:43:32;;;;;;;;;;;23.80;99.90;;;;;;4926951;28;20066;-78
2023/09/16 12:46:01;;;;;;;;;;;23.80;99.90;;;;;;4927906;28;19940;-77
2023/09/16 12:48:28;;;;;;;;;;;23.70;99.90;;;;;;4940293;28;19939;-79
2023/09/16 12:50:55;;;;;;;;;;;23.60;99.90;;;;;;4928750;28;19954;-76
2023/09/16 12:53:21;;;;;;;;;;;23.50;99.90;;;;;;4924892;28;19968;-76
2023/09/16 12:55:50;;;;;;;;;;;23.40;99.90;;;;;;4913687;28;19957;-81
2023/09/16 12:58:16;;;;;;;;;;;23.40;99.90;;;;;;4898219;28;19969;-76
2023/09/16 13:00:42;;;;;;;;;;;23.30;99.90;;;;;;4923295;28;19965;-75
2023/09/16 13:03:07;;;;;;;;;;;23.30;99.90;;;;;;4935691;28;19991;-79
2023/09/16 13:05:35;;;;;;;;;;;23.30;99.90;;;;;;4936525;28;19985;-75
2023/09/16 13:08:00;;;;;;;;;;;23.30;99.90;;;;;;4929471;28;20457;-76
2023/09/16 13:10:28;;;;;;;;;;;23.30;99.90;;;;;;4932615;28;20002;-77
2023/09/16 13:12:54;;;;;;;;;;;23.40;99.90;;;;;;4932615;28;19972;-68
2023/09/16 13:15:21;;;;;;;;;;;23.30;99.90;;;;;;4916396;28;19962;-67
2023/09/16 13:17:48;;;;;;;;;;;23.30;99.90;;;;;;4937362;28;19934;-67
2023/09/16 13:20:13;;;;;;;;;;;23.20;99.90;;;;;;4932438;28;19968;-67
2023/09/16 13:22:40;;;;;;;;;;;23.20;99.90;;;;;;4936180;28;20555;-66
2023/09/16 13:25:26;;;;;;;;;;;23.20;99.90;;;;;;4937554;28;19933;-66
2023/09/16 13:27:51;;;;;;;;;;;23.20;99.90;;;;;;4933795;28;19929;-66
2023/09/16 13:30:21;;;;;;;;;;;23.20;99.90;;;;;;4938477;28;20011;-66
2023/09/16 13:32:51;;;;;;;;;;;23.30;99.90;;;;;;4932161;28;20368;-66
2023/09/16 13:35:17;;;;;;;;;;;23.20;99.90;;;;;;4933139;28;19960;-67
2023/09/16 13:37:43;;;;;;;;;;;23.20;99.90;;;;;;4930827;28;20664;-66
2023/09/16 13:40:10;;;;;;;;;;;23.20;99.90;;;;;;4932878;28;20026;-67
2023/09/16 13:42:36;;;;;;;;;;;23.20;99.90;;;;;;4926521;28;20033;-67
2023/09/16 13:45:02;;;;;;;;;;;23.10;99.90;;;;;;4932432;28;20473;-66
2023/09/16 13:47:28;;;;;;;;;;;23.10;99.90;;;;;;4937885;28;19992;-67
2023/09/16 13:49:54;;;;;;;;;;;23.00;99.90;;;;;;4930790;28;19933;-66
2023/09/16 13:52:19;;;;;;;;;;;23.00;99.90;;;;;;4931107;28;20062;-67
2023/09/16 13:54:45;;;;;;;;;;;23.00;99.90;;;;;;4932931;28;20385;-67
2023/09/16 13:57:13;;;;;;;;;;;23.00;99.90;;;;;;4933768;28;19940;-68
2023/09/16 13:59:39;;;;;;;;;;;23.00;99.90;;;;;;4931409;28;19929;-66
2023/09/16 14:02:05;;;;;;;;;;;23.00;99.90;;;;;;4933565;28;20362;-66
2023/09/16 14:04:31;;;;;;;;;;;22.90;99.90;;;;;;4932097;28;19986;-66
2023/09/16 14:06:57;;;;;;;;;;;22.90;99.90;;;;;;4932659;28;20034;-66
2023/09/16 14:09:24;;;;;;;;;;;22.90;99.90;;;;;;4930474;28;19932;-66
2023/09/16 14:11:50;;;;;;;;;;;22.90;99.90;;;;;;4918197;28;19995;-71